Main page
METAR-TAF:

METAR-TAF

Airports :

Rouen Airport

Rouen, France

latitude: 49-23N, longitude: 001-11E, elevation: 157 m

Current weather observation

The report was made 22 minutes ago, at 23:00 UTC
Wind 7 kt from the Northeast
Temperature 13°C
Humidity 72%
Pressure 999 hPa
Visibility 10 km or more
no clouds below 1500 m and no cumulonimbus

METAR: LFOP 222300Z AUTO 05007KT CAVOK 13/08 Q0999

Time: 01:22 (23:22 UTC)

Forecast

The report was made 6 hours and 22 minutes ago, at 17:00 UTC
Forecast valid from 22 at 18 UTC to 23 at 18 UTC
Wind 5 kt from the East/Northeast
Visibility 10 km or more
no clouds below 1500 m and no cumulonimbus
Probability 30% :
Temporary
from 23 at 16 UTC to 23 at 18 UTC
Broken clouds at a height of 7000 ft, Cumulonimbus.
thunderstorm, rain

TAF: LFOP 221700Z 2218/2318 07005KT CAVOK PROB30 TEMPO 2316/2318 TSRA BKN070CB

Weather observations and forecasts of more than 4000 airports (METAR and TAF reports).

The available stations are represented by yellow and red dots on the map.

Hover mouse over dot to see the name of the station.

Then click to see weather observations and forecasts.

To change the map : click on the green buttons with a black cross to zoom in, on the green button with a dash to zoom out, or on the green arrows for adjacent maps.


METAR-TAF: